createdAt,value
2022-09-05T00:00:04.539Z,99640.38
2022-09-05T00:04:35.059Z,99642.13
2022-09-05T00:09:03.714Z,99644.84
2022-09-05T00:13:12.759Z,99647.53
2022-09-05T00:17:23.312Z,99644.09
2022-09-05T00:24:32.021Z,99640.69
2022-09-05T00:26:28.690Z,99648.53
2022-09-05T00:31:08.779Z,99641.63
2022-09-05T00:35:21.728Z,99641.66
2022-09-05T00:39:59.235Z,99636.50
2022-09-05T00:44:20.432Z,99639.13
2022-09-05T00:48:56.133Z,99642.63
2022-09-05T00:53:09.450Z,99634.84
2022-09-05T00:57:18.009Z,99643.56
2022-09-05T01:01:49.897Z,99637.53
2022-09-05T01:06:23.285Z,99634.13
2022-09-05T01:10:33.322Z,99635.03
2022-09-05T01:14:48.387Z,99630.00
2022-09-05T01:19:22.429Z,99626.53
2022-09-05T01:23:32.991Z,99627.34
2022-09-05T01:28:11.306Z,99622.16
2022-09-05T01:32:10.909Z,99629.16
2022-09-05T01:36:24.788Z,99633.59
2022-09-05T01:40:36.587Z,99639.63
2022-09-05T01:44:49.457Z,99624.84
2022-09-05T01:49:16.286Z,99636.16
2022-09-05T01:53:32.343Z,99629.25
2022-09-05T01:57:50.938Z,99632.69
2022-09-05T02:02:12.868Z,99624.88
2022-09-05T02:07:29.835Z,99617.97
2022-09-05T02:11:44.230Z,99618.91
2022-09-05T02:15:59.946Z,99620.72
2022-09-05T02:20:26.258Z,99629.44
2022-09-05T02:24:38.286Z,99629.50
2022-09-05T02:28:57.757Z,99618.31
2022-09-05T02:33:28.786Z,99619.16
2022-09-05T02:38:58.101Z,99622.59
2022-09-05T02:45:08.327Z,99617.44
2022-09-05T02:47:18.629Z,99626.09
2022-09-05T02:57:23.938Z,99624.34
2022-09-05T02:57:38.559Z,99628.69
2022-09-05T03:00:48.091Z,99614.75
2022-09-05T03:05:05.599Z,99614.75
2022-09-05T03:09:21.218Z,99613.94
2022-09-05T03:13:54.118Z,99620.00
2022-09-05T03:18:20.240Z,99618.31
2022-09-05T03:23:01.661Z,99627.94
2022-09-05T03:28:04.043Z,99630.59
2022-09-05T03:32:22.575Z,99626.22
2022-09-05T03:37:06.941Z,99634.88
2022-09-05T03:41:40.434Z,99632.28
2022-09-05T03:46:03.157Z,99632.31
2022-09-05T03:54:51.140Z,99633.19
2022-09-05T03:57:13.963Z,99632.34
2022-09-05T03:59:38.829Z,99630.66
2022-09-05T04:08:08.889Z,99639.34
2022-09-05T04:08:31.175Z,99630.69
2022-09-05T04:12:53.945Z,99635.00
2022-09-05T04:17:08.570Z,99631.53
2022-09-05T04:21:32.357Z,99628.06
2022-09-05T04:26:11.711Z,99627.22
2022-09-05T04:30:38.921Z,99629.81
2022-09-05T04:35:19.665Z,99631.56
2022-09-05T04:39:21.045Z,99631.56
2022-09-05T04:43:48.081Z,99623.81
2022-09-05T04:47:54.474Z,99628.13
2022-09-05T04:52:32.063Z,99632.47
2022-09-05T04:56:42.731Z,99635.97
2022-09-05T05:06:05.533Z,99637.72
2022-09-05T05:06:12.749Z,99637.75
2022-09-05T05:15:29.413Z,99643.81
2022-09-05T05:18:13.920Z,99648.19
2022-09-05T05:19:26.935Z,99655.97
2022-09-05T05:23:49.846Z,99669.81
2022-09-05T05:28:15.029Z,99663.78
2022-09-05T05:32:54.933Z,99686.31
2022-09-05T05:37:14.865Z,99679.31
2022-09-05T05:41:43.890Z,99684.47
2022-09-05T05:45:45.548Z,99694.84
2022-09-05T05:49:59.053Z,99696.50
2022-09-05T05:54:26.592Z,99705.06
2022-09-05T05:58:40.011Z,99703.22
2022-09-05T06:02:50.693Z,99698.69
2022-09-05T06:07:22.392Z,99702.50
2022-09-05T06:15:02.808Z,99696.66
2022-09-05T06:16:09.542Z,99698.63
2022-09-05T06:22:04.124Z,99692.78
2022-09-05T06:25:16.731Z,99699.00
2022-09-05T06:29:38.269Z,99701.94
2022-09-05T06:34:03.837Z,99702.13
2022-09-05T06:38:28.970Z,99699.06
2022-09-05T06:43:18.310Z,99709.59
2022-09-05T06:47:33.728Z,99715.59
2022-09-05T06:51:37.780Z,99716.19
2022-09-05T06:56:25.925Z,99717.59
2022-09-05T07:00:38.959Z,99721.44
2022-09-05T07:05:37.389Z,99710.41
2022-09-05T07:10:35.073Z,99717.84
2022-09-05T07:14:48.913Z,99715.22
2022-09-05T07:19:18.035Z,99718.72
2022-09-05T07:24:06.424Z,99711.41
2022-09-05T07:28:29.834Z,99705.38
2022-09-05T07:32:40.647Z,99716.66
2022-09-05T07:36:47.277Z,99727.19
2022-09-05T07:41:00.249Z,99729.03
2022-09-05T07:45:14.661Z,99736.44
2022-09-05T07:49:34.040Z,99740.97
2022-09-05T07:56:51.657Z,99734.66
2022-09-05T07:58:08.397Z,99739.78
2022-09-05T08:02:18.966Z,99722.31
2022-09-05T08:07:45.554Z,99725.94
2022-09-05T08:11:23.246Z,99733.66
2022-09-05T08:16:02.872Z,99740.25
2022-09-05T08:20:24.322Z,99742.22
2022-09-05T08:24:45.989Z,99742.84
2022-09-05T08:33:33.009Z,99729.69
2022-09-05T08:37:35.203Z,99727.59
2022-09-05T08:41:52.459Z,99725.13
2022-09-05T08:46:39.246Z,99723.09
2022-09-05T08:50:58.049Z,99713.34
2022-09-05T08:55:28.240Z,99711.22
2022-09-05T09:00:14.345Z,99707.19
2022-09-05T09:05:00.829Z,99699.84
2022-09-05T09:09:21.083Z,99698.59
2022-09-05T09:14:03.109Z,99680.00
2022-09-05T09:18:51.865Z,99668.16
2022-09-05T09:23:28.951Z,99672.63
2022-09-05T09:32:47.776Z,99660.59
2022-09-05T09:37:09.033Z,99660.22
2022-09-05T09:41:50.434Z,99664.03
2022-09-05T09:46:31.378Z,99658.03
2022-09-05T09:50:58.274Z,99657.09
2022-09-05T09:55:38.748Z,99658.16
2022-09-05T10:00:16.749Z,99648.88
2022-09-05T10:10:51.121Z,99645.59
2022-09-05T10:14:49.043Z,99642.66
2022-09-05T10:19:18.492Z,99624.88
2022-09-05T10:23:49.726Z,99625.28
2022-09-05T10:28:16.206Z,99613.25
2022-09-05T10:35:19.948Z,99612.97
2022-09-05T10:37:15.493Z,99608.31
2022-09-05T10:41:31.181Z,99604.81
2022-09-05T10:46:01.309Z,99596.25
2022-09-05T10:50:37.822Z,99603.88
2022-09-05T11:02:22.694Z,99577.28
2022-09-05T11:04:29.373Z,99577.81
2022-09-05T11:08:48.863Z,99574.78
2022-09-05T11:13:18.109Z,99564.81
2022-09-05T11:17:29.124Z,99563.97
2022-09-05T11:21:43.133Z,99549.22
2022-09-05T11:25:53.389Z,99538.84
2022-09-05T11:30:06.597Z,99531.00
2022-09-05T11:39:56.265Z,99533.38
2022-09-05T11:40:00.459Z,99537.59
2022-09-05T11:44:07.149Z,99532.00
2022-09-05T11:48:53.386Z,99535.41
2022-09-05T11:53:05.125Z,99530.44
2022-09-05T11:57:33.218Z,99529.19
2022-09-05T12:01:47.877Z,99521.31
2022-09-05T12:11:05.484Z,99503.00
2022-09-05T12:16:00.617Z,99510.94
2022-09-05T12:20:47.317Z,99498.66
2022-09-05T12:25:25.711Z,99487.75
2022-09-05T12:29:51.409Z,99479.09
2022-09-05T12:36:05.165Z,99487.75
2022-09-05T12:40:38.345Z,99483.78
2022-09-05T12:44:34.681Z,99483.50
2022-09-05T12:47:59.159Z,99479.53
2022-09-05T12:52:05.896Z,99463.69
2022-09-05T12:56:45.944Z,99474.34
2022-09-05T13:03:09.050Z,99471.34
2022-09-05T13:05:23.373Z,99467.22
2022-09-05T13:10:34.054Z,99474.16
2022-09-05T13:14:56.826Z,99474.44
2022-09-05T13:19:07.530Z,99461.25
2022-09-05T13:23:32.146Z,99452.75
2022-09-05T13:27:40.769Z,99447.81
2022-09-05T13:38:16.418Z,99437.50
2022-09-05T13:38:21.015Z,99443.19
2022-09-05T13:40:37.582Z,99435.97
2022-09-05T13:44:46.677Z,99416.44
2022-09-05T13:49:30.825Z,99416.28
2022-09-05T13:53:58.929Z,99416.28
2022-09-05T13:58:32.642Z,99420.09
2022-09-05T14:07:56.594Z,99414.69
2022-09-05T14:12:45.343Z,99403.00
2022-09-05T14:17:50.498Z,99418.88
2022-09-05T14:21:28.800Z,99419.72
2022-09-05T14:25:38.896Z,99418.03
2022-09-05T14:29:53.520Z,99415.88
2022-09-05T14:38:00.594Z,99405.44
2022-09-05T14:39:34.288Z,99406.81
2022-09-05T14:44:14.162Z,99406.91
2022-09-05T14:48:57.243Z,99396.41
2022-09-05T15:02:39.846Z,99395.00
2022-09-05T15:02:43.486Z,99379.94
2022-09-05T15:06:36.195Z,99378.31
2022-09-05T15:12:15.236Z,99375.59
2022-09-05T15:15:11.320Z,99375.94
2022-09-05T15:20:06.737Z,99370.06
2022-09-05T15:24:16.930Z,99370.31
2022-09-05T15:28:39.901Z,99371.63
2022-09-05T15:32:50.819Z,99375.03
2022-09-05T15:36:56.430Z,99366.03
2022-09-05T15:41:18.189Z,99364.41
2022-09-05T15:45:35.391Z,99363.31
2022-09-05T15:49:49.289Z,99353.47
2022-09-05T15:53:51.969Z,99357.91
2022-09-05T15:57:59.307Z,99350.41
2022-09-05T16:02:09.620Z,99347.88
2022-09-05T16:10:37.060Z,99344.78
2022-09-05T16:11:05.196Z,99338.50
2022-09-05T16:16:46.106Z,99329.75
2022-09-05T16:23:27.786Z,99320.38
2022-09-05T16:24:05.518Z,99309.06
2022-09-05T16:28:38.289Z,99306.59
2022-09-05T16:32:51.585Z,99301.69
2022-09-05T16:37:10.224Z,99297.19
2022-09-05T16:41:34.304Z,99295.09
2022-09-05T16:45:56.814Z,99294.97
2022-09-05T16:50:24.172Z,99284.09
2022-09-05T16:54:31.637Z,99282.72
2022-09-05T16:58:39.210Z,99291.88
2022-09-05T17:03:28.356Z,99274.38
2022-09-05T17:07:42.601Z,99279.56
2022-09-05T17:12:00.779Z,99280.03
2022-09-05T17:16:05.257Z,99282.06
2022-09-05T17:20:20.331Z,99279.81
2022-09-05T17:29:15.686Z,99291.50
2022-09-05T17:29:31.435Z,99282.94
2022-09-05T17:33:25.284Z,99288.06
2022-09-05T17:37:36.059Z,99291.69
2022-09-05T17:41:59.018Z,99303.72
2022-09-05T17:46:15.417Z,99308.81
2022-09-05T17:50:25.031Z,99305.81
2022-09-05T17:54:31.473Z,99321.16
2022-09-05T17:58:49.251Z,99321.09
2022-09-05T18:03:01.344Z,99328.16
2022-09-05T18:07:45.318Z,99319.16
2022-09-05T18:12:25.539Z,99314.19
2022-09-05T18:17:37.457Z,99311.03
2022-09-05T18:21:25.534Z,99307.00
2022-09-05T18:25:33.362Z,99307.38
2022-09-05T18:34:24.556Z,99306.91
2022-09-05T18:38:50.988Z,99302.63
2022-09-05T18:42:54.589Z,99315.88
2022-09-05T18:47:03.141Z,99317.47
2022-09-05T18:51:15.334Z,99321.78
2022-09-05T18:55:59.185Z,99333.00
2022-09-05T18:59:57.046Z,99324.91
2022-09-05T19:04:03.665Z,99327.38
2022-09-05T19:08:29.210Z,99321.47
2022-09-05T19:12:42.805Z,99313.06
2022-09-05T19:16:50.206Z,99323.31
2022-09-05T19:21:12.574Z,99324.97
2022-09-05T19:25:30.626Z,99327.81
2022-09-05T19:36:44.959Z,99323.97
2022-09-05T19:37:02.638Z,99313.84
2022-09-05T19:41:10.290Z,99317.09
2022-09-05T19:47:42.042Z,99317.44
2022-09-05T19:47:55.962Z,99308.19
2022-09-05T19:51:53.556Z,99302.41
2022-09-05T19:55:55.001Z,99306.44
2022-09-05T20:00:01.874Z,99299.78
2022-09-05T20:04:13.345Z,99296.59
2022-09-05T20:08:15.219Z,99303.13
2022-09-05T20:12:24.009Z,99295.53
2022-09-05T20:16:30.918Z,99295.75
2022-09-05T20:20:32.472Z,99305.72
2022-09-05T20:24:34.399Z,99311.06
2022-09-05T20:28:38.207Z,99300.66
2022-09-05T20:32:44.439Z,99302.66
2022-09-05T20:43:15.562Z,99304.56
2022-09-05T20:43:18.213Z,99309.19
2022-09-05T20:47:17.361Z,99320.00
2022-09-05T20:54:28.319Z,99323.81
2022-09-05T20:54:50.201Z,99316.81
2022-09-05T20:58:55.549Z,99317.75
2022-09-05T21:02:59.350Z,99312.63
2022-09-05T21:07:26.741Z,99310.97
2022-09-05T21:11:37.392Z,99319.41
2022-09-05T21:15:52.964Z,99307.34
2022-09-05T21:20:00.486Z,99303.88
2022-09-05T21:24:17.248Z,99309.28
2022-09-05T21:28:24.341Z,99296.38
2022-09-05T21:32:41.888Z,99300.88
2022-09-05T21:36:43.709Z,99300.00
2022-09-05T21:40:52.522Z,99288.69
2022-09-05T21:47:47.015Z,99287.09
2022-09-05T21:49:18.514Z,99282.22
2022-09-05T21:58:00.792Z,99279.72
2022-09-05T21:59:29.242Z,99277.22
2022-09-05T22:02:17.315Z,99266.75
2022-09-05T22:06:19.430Z,99274.78
2022-09-05T22:10:21.881Z,99275.69
2022-09-05T22:14:25.019Z,99270.63
2022-09-05T22:18:26.623Z,99266.25
2022-09-05T22:22:28.919Z,99265.41
2022-09-05T22:26:35.841Z,99268.00
2022-09-05T22:30:38.607Z,99268.03
2022-09-05T22:34:40.310Z,99271.59
2022-09-05T22:38:43.394Z,99270.88
2022-09-05T22:42:55.720Z,99258.63
2022-09-05T22:46:57.247Z,99258.75
2022-09-05T22:50:58.782Z,99264.09
2022-09-05T22:55:00.335Z,99300.75
2022-09-05T22:59:03.638Z,99299.34
2022-09-05T23:03:06.493Z,99289.44
2022-09-05T23:07:07.920Z,99312.31
2022-09-05T23:11:18.550Z,99330.16
2022-09-05T23:15:20.219Z,99336.81
2022-09-05T23:19:21.795Z,99347.28
2022-09-05T23:23:23.215Z,99356.19
2022-09-05T23:27:24.674Z,99445.22
2022-09-05T23:31:26.317Z,99488.00
2022-09-05T23:35:27.755Z,99515.16
2022-09-05T23:39:29.231Z,99542.72
2022-09-05T23:43:37.503Z,99573.06
2022-09-05T23:47:45.510Z,99583.06
2022-09-05T23:51:47.186Z,99540.16
2022-09-05T23:55:48.774Z,99491.25
2022-09-05T23:59:58.508Z,99426.38
